createdAt,value
2023-05-11T00:04:24.993Z,4.10
2023-05-11T00:09:28.663Z,3.80
2023-05-11T00:14:32.175Z,4.10
2023-05-11T00:19:35.775Z,4.00
2023-05-11T00:24:39.541Z,4.10
2023-05-11T00:29:43.364Z,3.90
2023-05-11T00:34:47.340Z,3.40
2023-05-11T00:39:50.903Z,4.00
2023-05-11T00:44:54.346Z,3.50
2023-05-11T00:50:00.309Z,3.40
2023-05-11T00:55:03.938Z,3.50
2023-05-11T01:00:22.944Z,3.50
2023-05-11T01:05:36.423Z,3.50
2023-05-11T01:10:44.808Z,3.60
2023-05-11T01:15:54.013Z,3.90
2023-05-11T01:21:03.403Z,4.10
2023-05-11T01:26:54.976Z,4.30
2023-05-11T01:32:03.178Z,4.00
2023-05-11T01:37:21.495Z,3.90
2023-05-11T01:42:32.272Z,4.30
2023-05-11T01:47:38.975Z,3.80
2023-05-11T01:52:44.331Z,4.10
2023-05-11T01:57:52.127Z,4.30
2023-05-11T02:02:59.301Z,3.50
2023-05-11T02:08:06.018Z,3.60
2023-05-11T02:13:10.926Z,3.70
2023-05-11T02:18:16.018Z,3.40
2023-05-11T02:23:21.670Z,3.40
2023-05-11T02:28:25.228Z,3.70
2023-05-11T02:33:35.065Z,3.70
2023-05-11T02:38:39.690Z,3.30
2023-05-11T02:43:47.614Z,3.60
2023-05-11T02:48:58.284Z,3.40
2023-05-11T02:54:04.059Z,3.50
2023-05-11T02:59:09.438Z,3.80
2023-05-11T03:04:16.481Z,3.50
2023-05-11T03:09:20.044Z,3.80
2023-05-11T03:14:24.121Z,4.00
2023-05-11T03:19:43.107Z,4.40
2023-05-11T03:24:47.848Z,4.20
2023-05-11T03:29:56.151Z,4.20
2023-05-11T03:35:00.300Z,3.50
2023-05-11T03:40:30.052Z,3.90
2023-05-11T03:45:35.534Z,3.70
2023-05-11T03:50:41.153Z,4.10
2023-05-11T03:55:57.197Z,4.10
2023-05-11T04:01:00.812Z,4.00
2023-05-11T04:06:14.541Z,3.50
2023-05-11T04:11:18.627Z,3.70
2023-05-11T04:16:22.330Z,4.30
2023-05-11T04:21:33.737Z,3.50
2023-05-11T04:26:37.552Z,3.60
2023-05-11T04:31:43.570Z,3.80
2023-05-11T04:36:51.303Z,3.80
2023-05-11T04:41:55.241Z,3.50
2023-05-11T04:47:03.550Z,3.50
2023-05-11T04:52:18.629Z,3.40
2023-05-11T04:57:28.160Z,3.60
2023-05-11T05:02:34.254Z,3.70
2023-05-11T05:07:48.896Z,3.60
2023-05-11T05:13:01.815Z,3.60
2023-05-11T05:18:07.472Z,3.70
2023-05-11T05:23:14.011Z,3.40
2023-05-11T05:28:17.778Z,2.90
2023-05-11T05:33:22.183Z,3.20
2023-05-11T05:38:26.009Z,3.20
2023-05-11T05:43:29.931Z,3.00
2023-05-11T05:48:34.212Z,3.00
2023-05-11T05:53:38.247Z,3.00
2023-05-11T05:58:43.483Z,3.20
2023-05-11T06:03:47.863Z,2.90
2023-05-11T06:08:51.830Z,3.00
2023-05-11T06:13:55.252Z,3.10
2023-05-11T06:19:01.717Z,3.20
2023-05-11T06:24:05.865Z,3.00
2023-05-11T06:29:11.613Z,3.00
2023-05-11T06:34:15.244Z,2.80
2023-05-11T06:39:18.623Z,3.00
2023-05-11T06:44:21.989Z,2.80
2023-05-11T06:49:27.428Z,2.90
2023-05-11T06:54:31.359Z,2.60
2023-05-11T06:59:34.762Z,2.70
2023-05-11T07:04:38.035Z,2.70
2023-05-11T07:09:42.093Z,2.60
2023-05-11T07:14:45.856Z,2.80
2023-05-11T07:19:51.428Z,2.50
2023-05-11T07:24:55.159Z,2.60
2023-05-11T07:29:58.476Z,2.40
2023-05-11T07:35:01.985Z,2.30
2023-05-11T07:40:06.790Z,2.30
2023-05-11T07:45:10.647Z,2.00
2023-05-11T07:50:14.109Z,2.30
2023-05-11T07:55:20.408Z,2.80
2023-05-11T08:00:24.446Z,2.30
2023-05-11T08:05:33.321Z,2.20
2023-05-11T08:10:37.287Z,2.20
2023-05-11T08:15:40.546Z,2.00
2023-05-11T08:20:44.129Z,2.60
2023-05-11T08:25:52.063Z,2.10
2023-05-11T08:30:57.093Z,2.10
2023-05-11T08:36:00.631Z,2.30
2023-05-11T08:41:05.058Z,2.10
2023-05-11T08:46:10.046Z,2.20
2023-05-11T08:51:13.464Z,2.60
2023-05-11T08:56:17.481Z,2.10
2023-05-11T09:01:23.552Z,2.10
2023-05-11T09:06:31.145Z,2.30
2023-05-11T09:11:34.547Z,2.50
2023-05-11T09:16:37.967Z,2.30
2023-05-11T09:21:41.498Z,2.40
2023-05-11T09:26:44.936Z,2.20
2023-05-11T09:31:48.352Z,2.30
2023-05-11T09:36:53.822Z,2.60
2023-05-11T09:42:17.194Z,2.20
2023-05-11T09:47:22.724Z,2.30
2023-05-11T09:52:25.982Z,2.30
2023-05-11T09:57:31.077Z,2.20
2023-05-11T10:02:35.236Z,2.00
2023-05-11T10:07:40.216Z,2.40
2023-05-11T10:12:43.688Z,2.30
2023-05-11T10:17:48.742Z,2.20
2023-05-11T10:22:54.333Z,2.20
2023-05-11T10:27:59.147Z,2.20
2023-05-11T10:33:02.409Z,2.00
2023-05-11T10:38:08.350Z,2.20
2023-05-11T10:43:26.647Z,2.30
2023-05-11T10:48:33.353Z,2.20
2023-05-11T10:53:39.444Z,2.20
2023-05-11T10:58:48.602Z,2.20
2023-05-11T11:03:59.673Z,2.10
2023-05-11T11:09:05.759Z,2.40
2023-05-11T11:14:10.484Z,2.40
2023-05-11T11:19:29.561Z,2.10
2023-05-11T11:24:53.484Z,2.20
2023-05-11T11:30:15.818Z,2.50
2023-05-11T11:35:45.115Z,2.40
2023-05-11T11:40:52.878Z,2.20
2023-05-11T11:46:00.230Z,2.10
2023-05-11T11:51:13.167Z,2.20
2023-05-11T12:06:41.475Z,2.30
2023-05-11T12:11:47.956Z,2.40
2023-05-11T12:17:13.775Z,2.40
2023-05-11T12:22:26.052Z,2.50
2023-05-11T12:27:29.446Z,2.60
2023-05-11T12:32:32.953Z,2.40
2023-05-11T12:37:46.398Z,2.40
2023-05-11T12:42:53.881Z,2.50
2023-05-11T12:47:58.679Z,2.50
2023-05-11T12:53:19.342Z,2.50
2023-05-11T12:58:22.775Z,2.50
2023-05-11T13:03:29.502Z,2.40
2023-05-11T13:08:33.141Z,2.70
2023-05-11T13:13:36.308Z,2.40
2023-05-11T13:18:39.641Z,2.60
2023-05-11T13:23:51.979Z,2.40
2023-05-11T13:29:09.378Z,2.30
2023-05-11T13:34:15.349Z,2.70
2023-05-11T13:39:19.617Z,2.50
2023-05-11T13:44:22.835Z,2.50
2023-05-11T13:49:26.090Z,2.50
2023-05-11T13:54:32.108Z,2.40
2023-05-11T13:59:35.491Z,2.60
2023-05-11T14:04:40.559Z,2.70
2023-05-11T14:09:44.018Z,3.00
2023-05-11T14:14:47.270Z,2.70
2023-05-11T14:19:50.500Z,2.50
2023-05-11T14:24:53.755Z,2.70
2023-05-11T14:30:02.742Z,2.60
2023-05-11T14:35:06.258Z,2.80
2023-05-11T14:40:10.261Z,2.70
2023-05-11T14:45:13.429Z,2.70
2023-05-11T14:50:16.662Z,2.80
2023-05-11T14:55:20.262Z,2.60
2023-05-11T15:00:23.958Z,2.50
2023-05-11T15:05:27.923Z,2.50
2023-05-11T15:10:31.241Z,2.40
2023-05-11T15:15:34.616Z,2.50
2023-05-11T15:20:38.822Z,2.80
2023-05-11T15:25:42.495Z,2.40
2023-05-11T15:30:48.888Z,2.30
2023-05-11T15:35:52.226Z,2.50
2023-05-11T15:40:55.529Z,2.50
2023-05-11T15:45:59.047Z,2.50
2023-05-11T15:51:03.017Z,2.40
2023-05-11T15:56:06.483Z,2.60
2023-05-11T16:01:09.794Z,2.30
2023-05-11T16:06:13.188Z,2.60
2023-05-11T16:11:18.963Z,2.80
2023-05-11T16:16:22.484Z,2.50
2023-05-11T16:21:26.318Z,2.50
2023-05-11T16:26:31.509Z,2.30
2023-05-11T16:31:35.010Z,2.30
2023-05-11T16:36:38.493Z,2.40
2023-05-11T16:41:41.853Z,2.60
2023-05-11T16:46:45.252Z,2.80
2023-05-11T16:52:08.796Z,2.90
2023-05-11T16:57:12.191Z,2.60
2023-05-11T17:02:15.378Z,2.30
2023-05-11T17:07:18.742Z,2.50
2023-05-11T17:12:22.837Z,2.50
2023-05-11T17:17:29.285Z,2.40
2023-05-11T17:22:35.591Z,2.50
2023-05-11T17:27:46.483Z,2.30
2023-05-11T17:32:49.927Z,2.30
2023-05-11T17:38:06.416Z,2.50
2023-05-11T17:43:10.255Z,2.60
2023-05-11T17:48:13.977Z,3.00
2023-05-11T17:53:20.258Z,2.50
2023-05-11T17:58:23.527Z,2.50
2023-05-11T18:03:27.725Z,2.60
2023-05-11T18:08:32.991Z,2.50
2023-05-11T18:14:01.118Z,2.80
2023-05-11T18:19:04.789Z,2.90
2023-05-11T18:24:09.737Z,3.00
2023-05-11T18:29:13.476Z,3.00
2023-05-11T18:34:17.047Z,2.80
2023-05-11T18:39:20.436Z,2.70
2023-05-11T18:44:23.736Z,3.10
2023-05-11T18:49:26.980Z,2.70
2023-05-11T18:54:30.413Z,2.70
2023-05-11T18:59:34.149Z,2.80
2023-05-11T19:04:38.032Z,2.90
2023-05-11T19:09:41.418Z,3.20
2023-05-11T19:14:46.718Z,3.10
2023-05-11T19:19:52.265Z,2.90
2023-05-11T19:24:55.606Z,3.20
2023-05-11T19:29:58.961Z,3.00
2023-05-11T19:35:02.383Z,3.20
2023-05-11T19:40:37.980Z,3.20
2023-05-11T19:45:33.314Z,3.40
2023-05-11T19:50:36.466Z,3.20
2023-05-11T19:55:40.963Z,3.00
2023-05-11T20:00:44.846Z,3.70
2023-05-11T20:05:48.243Z,3.50
2023-05-11T20:10:51.685Z,4.00
2023-05-11T20:15:55.318Z,3.60
2023-05-11T20:20:58.797Z,3.80
2023-05-11T20:26:02.414Z,4.10
2023-05-11T20:31:09.834Z,4.00
2023-05-11T20:36:13.503Z,4.10
2023-05-11T20:41:16.846Z,4.40
2023-05-11T20:46:20.792Z,4.40
2023-05-11T20:51:24.434Z,4.60
2023-05-11T20:56:28.015Z,4.60
2023-05-11T21:01:31.498Z,4.80
2023-05-11T21:06:37.787Z,4.30
2023-05-11T21:11:41.281Z,4.50
2023-05-11T21:16:44.649Z,4.90
2023-05-11T21:21:49.738Z,4.50
2023-05-11T21:26:53.080Z,4.40
2023-05-11T21:31:56.256Z,4.30
2023-05-11T21:36:59.958Z,4.20
2023-05-11T21:42:03.355Z,4.70
2023-05-11T21:47:06.891Z,4.40
2023-05-11T21:52:10.561Z,5.00
2023-05-11T21:57:13.826Z,4.90
2023-05-11T22:02:17.522Z,4.80
2023-05-11T22:07:21.040Z,4.50
2023-05-11T22:12:24.471Z,4.20
2023-05-11T22:17:27.992Z,4.70
2023-05-11T22:22:32.250Z,4.80
2023-05-11T22:27:36.146Z,4.50
2023-05-11T22:32:39.426Z,4.70
2023-05-11T22:37:42.906Z,4.00
2023-05-11T22:42:46.191Z,4.40
2023-05-11T22:47:49.766Z,4.60
2023-05-11T22:52:53.235Z,4.40
2023-05-11T22:57:56.544Z,4.20
2023-05-11T23:03:00.333Z,4.40
2023-05-11T23:08:04.173Z,4.20
2023-05-11T23:13:07.331Z,4.70
2023-05-11T23:18:10.782Z,4.80
2023-05-11T23:23:25.353Z,4.60
2023-05-11T23:28:28.645Z,4.60
2023-05-11T23:33:32.911Z,4.70
2023-05-11T23:38:39.837Z,4.90
2023-05-11T23:43:43.120Z,4.90
2023-05-11T23:48:46.761Z,4.60
2023-05-11T23:53:50.755Z,5.30
2023-05-11T23:59:14.535Z,5.00
